createdAt,value
2023-02-24T00:00:41.591Z,98887.00
2023-02-24T00:03:14.828Z,98889.00
2023-02-24T00:05:41.822Z,98880.00
2023-02-24T00:08:15.711Z,98878.00
2023-02-24T00:10:42.725Z,98876.00
2023-02-24T00:13:16.641Z,98889.00
2023-02-24T00:16:01.576Z,98889.00
2023-02-24T00:18:35.629Z,98878.00
2023-02-24T00:21:07.790Z,98889.00
2023-02-24T00:23:42.631Z,98889.00
2023-02-24T00:26:10.790Z,98888.00
2023-02-24T00:28:37.896Z,98886.00
2023-02-24T00:31:19.033Z,98873.00
2023-02-24T00:33:53.736Z,98872.00
2023-02-24T00:36:21.272Z,98875.00
2023-02-24T00:38:54.690Z,98874.00
2023-02-24T00:41:29.670Z,98865.00
2023-02-24T00:44:08.722Z,98881.00
2023-02-24T00:46:41.190Z,98876.00
2023-02-24T00:49:18.696Z,98866.00
2023-02-24T00:51:48.059Z,98857.00
2023-02-24T00:54:22.683Z,98852.00
2023-02-24T00:56:49.544Z,98861.00
2023-02-24T00:59:23.685Z,98862.00
2023-02-24T01:01:51.042Z,98867.00
2023-02-24T01:04:24.702Z,98865.00
2023-02-24T01:06:53.261Z,98861.00
2023-02-24T01:09:27.670Z,98853.00
2023-02-24T01:11:54.890Z,98861.00
2023-02-24T01:14:25.150Z,98857.00
2023-02-24T01:16:58.669Z,98862.00
2023-02-24T01:19:30.601Z,98861.00
2023-02-24T01:22:05.708Z,98851.00
2023-02-24T01:24:35.771Z,98856.00
2023-02-24T01:27:03.042Z,98858.00
2023-02-24T01:29:36.673Z,98849.00
2023-02-24T01:32:03.721Z,98841.00
2023-02-24T01:34:37.699Z,98839.00
2023-02-24T01:37:04.784Z,98839.00
2023-02-24T01:39:37.714Z,98830.00
2023-02-24T01:42:11.730Z,98831.00
2023-02-24T01:44:41.652Z,98837.00
2023-02-24T01:47:08.558Z,98832.00
2023-02-24T01:49:45.694Z,98822.00
2023-02-24T01:52:29.116Z,98822.00
2023-02-24T01:55:05.731Z,98822.00
2023-02-24T01:57:39.725Z,98811.00
2023-02-24T02:00:09.415Z,98804.00
2023-02-24T02:02:43.724Z,98791.00
2023-02-24T02:05:10.881Z,98811.00
2023-02-24T02:07:45.709Z,98811.00
2023-02-24T02:10:12.648Z,98806.00
2023-02-24T02:12:46.716Z,98801.00
2023-02-24T02:15:17.076Z,98807.00
2023-02-24T02:18:08.789Z,98807.00
2023-02-24T02:20:53.888Z,98813.00
2023-02-24T02:24:06.811Z,98812.00
2023-02-24T02:27:04.727Z,98795.00
2023-02-24T02:30:01.967Z,98803.00
2023-02-24T02:33:08.751Z,98800.00
2023-02-24T02:36:23.322Z,98820.00
2023-02-24T02:39:37.727Z,98812.00
2023-02-24T02:42:11.723Z,98813.00
2023-02-24T02:45:09.787Z,98807.00
2023-02-24T02:48:07.735Z,98822.00
2023-02-24T02:50:45.904Z,98802.00
2023-02-24T02:53:30.753Z,98802.00
2023-02-24T02:56:13.781Z,98803.00
2023-02-24T02:58:44.778Z,98792.00
2023-02-24T03:01:19.015Z,98787.00
2023-02-24T03:03:56.721Z,98796.00
2023-02-24T03:06:41.733Z,98793.00
2023-02-24T03:09:27.755Z,98791.00
2023-02-24T03:11:58.592Z,98787.00
2023-02-24T03:14:37.744Z,98799.00
2023-02-24T03:17:11.380Z,98798.00
2023-02-24T03:19:45.781Z,98788.00
2023-02-24T03:22:17.529Z,98775.00
2023-02-24T03:24:50.756Z,98781.00
2023-02-24T03:27:28.065Z,98774.00
2023-02-24T03:30:22.771Z,98777.00
2023-02-24T03:33:13.372Z,98774.00
2023-02-24T03:35:47.761Z,98768.00
2023-02-24T03:38:14.680Z,98776.00
2023-02-24T03:40:41.605Z,98761.00
2023-02-24T03:43:39.805Z,98770.00
2023-02-24T03:46:12.808Z,98767.00
2023-02-24T03:48:47.717Z,98760.00
2023-02-24T03:51:26.740Z,98766.00
2023-02-24T03:54:29.780Z,98764.00
2023-02-24T03:57:56.748Z,98764.00
2023-02-24T04:00:45.503Z,98760.00
2023-02-24T04:03:39.753Z,98754.00
2023-02-24T04:06:18.788Z,98755.00
2023-02-24T04:08:58.771Z,98769.00
2023-02-24T04:12:08.413Z,98768.00
2023-02-24T04:14:59.809Z,98769.00
2023-02-24T04:17:56.619Z,98743.00
2023-02-24T04:20:31.753Z,98761.00
2023-02-24T04:23:17.886Z,98751.00
2023-02-24T04:25:53.814Z,98772.00
2023-02-24T04:28:21.230Z,98749.00
2023-02-24T04:31:00.833Z,98765.00
2023-02-24T04:33:34.799Z,98768.00
2023-02-24T04:36:01.757Z,98764.00
2023-02-24T04:38:28.701Z,98753.00
2023-02-24T04:41:01.825Z,98764.00
2023-02-24T04:43:28.704Z,98769.00
2023-02-24T04:46:01.821Z,98754.00
2023-02-24T04:48:28.713Z,98754.00
2023-02-24T04:51:01.846Z,98771.00
2023-02-24T04:53:28.899Z,98768.00
2023-02-24T04:56:02.826Z,98764.00
2023-02-24T04:58:29.756Z,98760.00
2023-02-24T05:00:56.642Z,98774.00
2023-02-24T05:03:30.814Z,98766.00
2023-02-24T05:05:59.450Z,98752.00
2023-02-24T05:08:33.848Z,98761.00
2023-02-24T05:11:00.856Z,98750.00
2023-02-24T05:13:35.849Z,98754.00
2023-02-24T05:16:15.921Z,98751.00
2023-02-24T05:18:42.814Z,98747.00
2023-02-24T05:21:15.438Z,98745.00
2023-02-24T05:23:52.877Z,98742.00
2023-02-24T05:26:26.968Z,98735.00
2023-02-24T05:29:01.821Z,98740.00
2023-02-24T05:31:30.162Z,98721.00
2023-02-24T05:34:08.916Z,98736.00
2023-02-24T05:36:44.846Z,98742.00
2023-02-24T05:39:12.154Z,98736.00
2023-02-24T05:41:48.846Z,98736.00
2023-02-24T05:44:18.307Z,98729.00
2023-02-24T05:46:52.890Z,98735.00
2023-02-24T05:49:34.823Z,98733.00
2023-02-24T05:52:07.202Z,98736.00
2023-02-24T05:54:46.876Z,98741.00
2023-02-24T05:57:16.083Z,98732.00
2023-02-24T05:59:43.346Z,98736.00
2023-02-24T06:02:19.894Z,98734.00
2023-02-24T06:04:46.943Z,98746.00
2023-02-24T06:07:25.883Z,98741.00
2023-02-24T06:10:01.863Z,98736.00
2023-02-24T06:12:31.086Z,98731.00
2023-02-24T06:15:04.881Z,98735.00
2023-02-24T06:17:31.767Z,98735.00
2023-02-24T06:20:04.880Z,98719.00
2023-02-24T06:22:37.844Z,98716.00
2023-02-24T06:25:05.360Z,98717.00
2023-02-24T06:27:32.275Z,98722.00
2023-02-24T06:30:05.817Z,98708.00
2023-02-24T06:32:32.845Z,98726.00
2023-02-24T06:35:05.909Z,98719.00
2023-02-24T06:37:33.337Z,98736.00
2023-02-24T06:40:06.846Z,98744.00
2023-02-24T06:42:33.745Z,98739.00
2023-02-24T06:45:00.673Z,98744.00
2023-02-24T06:47:33.896Z,98757.00
2023-02-24T06:50:00.856Z,98758.00
2023-02-24T06:52:33.872Z,98755.00
2023-02-24T06:55:06.880Z,98739.00
2023-02-24T06:57:33.760Z,98749.00
2023-02-24T07:00:01.490Z,98758.00
2023-02-24T07:02:34.880Z,98749.00
2023-02-24T07:05:01.801Z,98752.00
2023-02-24T07:07:34.890Z,98746.00
2023-02-24T07:10:01.795Z,98759.00
2023-02-24T07:12:34.914Z,98754.00
2023-02-24T07:15:01.820Z,98764.00
2023-02-24T07:17:41.863Z,98768.00
2023-02-24T07:20:10.140Z,98767.00
2023-02-24T07:22:44.853Z,98761.00
2023-02-24T07:25:11.780Z,98764.00
2023-02-24T07:27:44.918Z,98750.00
2023-02-24T07:30:12.599Z,98757.00
2023-02-24T07:32:39.540Z,98765.00
2023-02-24T07:35:13.897Z,98765.00
2023-02-24T07:37:40.931Z,98764.00
2023-02-24T07:40:15.963Z,98772.00
2023-02-24T07:42:45.649Z,98771.00
2023-02-24T07:45:18.960Z,98772.00
2023-02-24T07:47:45.986Z,98763.00
2023-02-24T07:50:13.083Z,98770.00
2023-02-24T07:52:48.002Z,98769.00
2023-02-24T07:55:29.904Z,98769.00
2023-02-24T07:57:57.440Z,98754.00
2023-02-24T08:00:30.906Z,98758.00
2023-02-24T08:02:58.993Z,98767.00
2023-02-24T08:05:32.947Z,98761.00
2023-02-24T08:07:59.914Z,98754.00
2023-02-24T08:10:26.927Z,98746.00
2023-02-24T08:13:01.930Z,98747.00
2023-02-24T08:15:28.929Z,98744.00
2023-02-24T08:18:04.987Z,98752.00
2023-02-24T08:20:32.460Z,98731.00
2023-02-24T08:22:59.488Z,98751.00
2023-02-24T08:25:35.301Z,98742.00
2023-02-24T08:28:08.516Z,98729.00
2023-02-24T08:30:45.906Z,98755.00
2023-02-24T08:33:19.321Z,98739.00
2023-02-24T08:35:58.026Z,98731.00
2023-02-24T08:38:26.557Z,98728.00
2023-02-24T08:40:53.690Z,98736.00
2023-02-24T08:43:32.047Z,98725.00
2023-02-24T08:46:12.430Z,98718.00
2023-02-24T08:49:01.075Z,98716.00
2023-02-24T08:51:35.643Z,98727.00
2023-02-24T08:54:12.956Z,98708.00
2023-02-24T08:56:39.964Z,98700.00
2023-02-24T08:59:06.938Z,98705.00
2023-02-24T09:01:48.505Z,98709.00
2023-02-24T09:04:17.882Z,98704.00
2023-02-24T09:07:00.276Z,98703.00
2023-02-24T09:09:36.728Z,98703.00
2023-02-24T09:12:09.988Z,98701.00
2023-02-24T09:14:36.953Z,98713.00
2023-02-24T09:17:20.040Z,98705.00
2023-02-24T09:19:49.756Z,98708.00
2023-02-24T09:22:27.960Z,98713.00
2023-02-24T09:24:55.084Z,98707.00
2023-02-24T09:27:35.078Z,98712.00
2023-02-24T09:30:02.028Z,98706.00
2023-02-24T09:32:29.060Z,98712.00
2023-02-24T09:35:03.057Z,98711.00
2023-02-24T09:37:30.072Z,98709.00
2023-02-24T09:39:57.121Z,98713.00
2023-02-24T09:42:37.340Z,98702.00
2023-02-24T09:45:13.992Z,98705.00
2023-02-24T09:47:42.356Z,98707.00
2023-02-24T09:50:59.023Z,98703.00
2023-02-24T09:53:23.002Z,98686.00
2023-02-24T09:56:33.092Z,98682.00
2023-02-24T09:59:28.281Z,98689.00
2023-02-24T10:02:51.030Z,98693.00
2023-02-24T10:05:28.458Z,98683.00
2023-02-24T10:08:02.054Z,98692.00
2023-02-24T10:10:33.474Z,98693.00
2023-02-24T10:13:14.078Z,98699.00
2023-02-24T10:15:57.439Z,98693.00
2023-02-24T10:18:48.536Z,98669.00
2023-02-24T10:21:43.997Z,98687.00
2023-02-24T10:24:29.032Z,98683.00
2023-02-24T10:27:08.352Z,98683.00
2023-02-24T10:30:18.026Z,98685.00
2023-02-24T10:32:56.037Z,98680.00
2023-02-24T10:35:30.014Z,98662.00
2023-02-24T10:37:57.101Z,98654.00
2023-02-24T10:40:31.043Z,98655.00
2023-02-24T10:43:07.675Z,98650.00
2023-02-24T10:45:46.104Z,98649.00
2023-02-24T10:48:32.309Z,98640.00
2023-02-24T10:51:22.618Z,98643.00
2023-02-24T10:53:50.734Z,98627.00
2023-02-24T10:56:17.831Z,98630.00
2023-02-24T10:58:51.089Z,98617.00
2023-02-24T11:01:43.112Z,98627.00
2023-02-24T11:04:15.800Z,98638.00
2023-02-24T11:06:42.709Z,98626.00
2023-02-24T11:09:43.054Z,98622.00
2023-02-24T11:12:25.582Z,98632.00
2023-02-24T11:15:04.078Z,98629.00
2023-02-24T11:17:30.976Z,98620.00
2023-02-24T11:20:14.030Z,98636.00
2023-02-24T11:22:49.042Z,98620.00
2023-02-24T11:25:34.539Z,98625.00
2023-02-24T11:28:08.132Z,98609.00
2023-02-24T11:31:03.034Z,98596.00
2023-02-24T11:34:12.166Z,98601.00
2023-02-24T11:37:05.054Z,98598.00
2023-02-24T11:40:01.079Z,98581.00
2023-02-24T11:42:46.053Z,98574.00
2023-02-24T11:45:15.648Z,98557.00
2023-02-24T11:48:16.101Z,98562.00
2023-02-24T11:50:58.352Z,98558.00
2023-02-24T11:54:00.069Z,98535.00
2023-02-24T11:56:55.090Z,98542.00
2023-02-24T11:59:44.250Z,98550.00
2023-02-24T12:02:38.097Z,98539.00
2023-02-24T12:05:15.670Z,98531.00
2023-02-24T12:08:05.107Z,98516.00
2023-02-24T12:10:35.589Z,98526.00
2023-02-24T12:13:18.099Z,98504.00
2023-02-24T12:15:59.018Z,98490.00
2023-02-24T12:19:05.023Z,98503.00
2023-02-24T12:21:38.079Z,98499.00
2023-02-24T12:24:12.091Z,98488.00
2023-02-24T12:26:59.904Z,98481.00
2023-02-24T12:29:51.124Z,98480.00
2023-02-24T12:32:26.971Z,98483.00
2023-02-24T12:35:28.053Z,98477.00
2023-02-24T12:38:16.607Z,98471.00
2023-02-24T12:41:27.145Z,98469.00
2023-02-24T12:44:38.130Z,98456.00
2023-02-24T12:47:46.124Z,98459.00
2023-02-24T12:50:55.539Z,98454.00
2023-02-24T12:53:59.466Z,98438.00
2023-02-24T12:57:10.839Z,98443.00
2023-02-24T12:59:46.761Z,98437.00
2023-02-24T13:02:55.436Z,98425.00
2023-02-24T13:05:38.534Z,98421.00
2023-02-24T13:08:47.632Z,98411.00
2023-02-24T13:11:32.520Z,98411.00
2023-02-24T13:14:38.548Z,98409.00
2023-02-24T13:17:11.840Z,98397.00
2023-02-24T13:19:55.137Z,98393.00
2023-02-24T13:22:30.318Z,98397.00
2023-02-24T13:25:14.184Z,98397.00
2023-02-24T13:27:44.213Z,98400.00
2023-02-24T13:30:24.170Z,98384.00
2023-02-24T13:33:14.132Z,98378.00
2023-02-24T13:35:41.057Z,98377.00
2023-02-24T13:38:38.114Z,98378.00
2023-02-24T13:41:36.890Z,98371.00
2023-02-24T13:44:26.415Z,98364.00
2023-02-24T13:47:22.153Z,98371.00
2023-02-24T13:50:30.162Z,98354.00
2023-02-24T13:53:18.193Z,98363.00
2023-02-24T13:56:31.078Z,98354.00
2023-02-24T13:59:19.093Z,98344.00
2023-02-24T14:02:01.816Z,98336.00
2023-02-24T14:04:42.160Z,98334.00
2023-02-24T14:07:17.641Z,98324.00
2023-02-24T14:09:55.122Z,98334.00
2023-02-24T14:12:26.617Z,98332.00
2023-02-24T14:15:00.175Z,98326.00
2023-02-24T14:17:35.795Z,98322.00
2023-02-24T14:20:26.114Z,98329.00
2023-02-24T14:22:55.692Z,98331.00
2023-02-24T14:25:23.251Z,98317.00
2023-02-24T14:27:59.212Z,98326.00
2023-02-24T14:30:29.295Z,98326.00
2023-02-24T14:33:03.123Z,98314.00
2023-02-24T14:35:40.894Z,98322.00
2023-02-24T14:38:34.244Z,98329.00
2023-02-24T14:41:02.838Z,98321.00
2023-02-24T14:43:29.814Z,98320.00
2023-02-24T14:46:03.221Z,98308.00
2023-02-24T14:48:31.533Z,98309.00
2023-02-24T14:51:20.175Z,98296.00
2023-02-24T14:53:55.350Z,98300.00
2023-02-24T14:56:30.227Z,98293.00
2023-02-24T14:59:07.232Z,98280.00
2023-02-24T15:01:46.179Z,98289.00
2023-02-24T15:04:22.150Z,98295.00
2023-02-24T15:06:55.189Z,98279.00
2023-02-24T15:09:34.910Z,98298.00
2023-02-24T15:12:23.224Z,98296.00
2023-02-24T15:15:15.371Z,98273.00
2023-02-24T15:17:49.184Z,98275.00
2023-02-24T15:20:28.763Z,98278.00
2023-02-24T15:23:03.212Z,98266.00
2023-02-24T15:25:48.173Z,98281.00
2023-02-24T15:28:29.149Z,98265.00
2023-02-24T15:31:05.267Z,98278.00
2023-02-24T15:33:41.159Z,98255.00
2023-02-24T15:36:30.203Z,98263.00
2023-02-24T15:39:04.559Z,98262.00
2023-02-24T15:41:50.221Z,98254.00
2023-02-24T15:44:30.915Z,98266.00
2023-02-24T15:47:05.283Z,98252.00
2023-02-24T15:49:32.294Z,98259.00
2023-02-24T15:52:06.264Z,98245.00
2023-02-24T15:54:35.915Z,98250.00
2023-02-24T15:57:03.130Z,98251.00
2023-02-24T15:59:36.255Z,98237.00
2023-02-24T16:02:10.227Z,98245.00
2023-02-24T16:04:37.208Z,98228.00
2023-02-24T16:07:04.196Z,98236.00
2023-02-24T16:09:47.244Z,98222.00
2023-02-24T16:12:16.842Z,98231.00
2023-02-24T16:14:44.024Z,98232.00
2023-02-24T16:17:46.257Z,98224.00
2023-02-24T16:20:25.596Z,98226.00
2023-02-24T16:23:00.233Z,98224.00
2023-02-24T16:25:27.745Z,98223.00
2023-02-24T16:27:54.721Z,98215.00
2023-02-24T16:30:28.305Z,98215.00
2023-02-24T16:32:55.542Z,98213.00
2023-02-24T16:35:29.272Z,98210.00
2023-02-24T16:37:56.197Z,98207.00
2023-02-24T16:40:27.742Z,98206.00
2023-02-24T16:43:01.248Z,98201.00
2023-02-24T16:45:28.536Z,98204.00
2023-02-24T16:48:03.245Z,98199.00
2023-02-24T16:50:42.272Z,98204.00
2023-02-24T16:53:12.809Z,98213.00
2023-02-24T16:55:39.860Z,98206.00
2023-02-24T16:58:16.875Z,98199.00
2023-02-24T17:00:46.695Z,98201.00
2023-02-24T17:03:34.695Z,98218.00
2023-02-24T17:06:02.123Z,98210.00
2023-02-24T17:08:36.304Z,98209.00
2023-02-24T17:11:05.722Z,98209.00
2023-02-24T17:13:35.604Z,98198.00
2023-02-24T17:16:13.733Z,98200.00
2023-02-24T17:18:40.752Z,98200.00
2023-02-24T17:21:17.542Z,98196.00
2023-02-24T17:23:45.758Z,98215.00
2023-02-24T17:26:25.554Z,98210.00
2023-02-24T17:28:56.182Z,98209.00
2023-02-24T17:31:23.307Z,98220.00
2023-02-24T17:33:57.331Z,98201.00
2023-02-24T17:36:24.404Z,98196.00
2023-02-24T17:38:51.503Z,98191.00
2023-02-24T17:41:25.354Z,98203.00
2023-02-24T17:43:53.348Z,98198.00
2023-02-24T17:46:27.369Z,98208.00
2023-02-24T17:48:54.685Z,98199.00
2023-02-24T17:51:28.259Z,98206.00
2023-02-24T17:53:55.293Z,98209.00
2023-02-24T17:56:29.342Z,98200.00
2023-02-24T17:58:56.533Z,98205.00
2023-02-24T18:01:30.300Z,98209.00
2023-02-24T18:03:57.371Z,98212.00
2023-02-24T18:06:24.916Z,98192.00
2023-02-24T18:08:58.370Z,98216.00
2023-02-24T18:11:25.399Z,98218.00
2023-02-24T18:13:52.389Z,98223.00
2023-02-24T18:16:26.635Z,98216.00
2023-02-24T18:18:53.748Z,98206.00
2023-02-24T18:21:27.349Z,98208.00
2023-02-24T18:23:54.464Z,98201.00
2023-02-24T18:26:28.670Z,98201.00
2023-02-24T18:28:56.093Z,98182.00
2023-02-24T18:31:31.502Z,98179.00
2023-02-24T18:33:59.040Z,98183.00
2023-02-24T18:36:26.664Z,98194.00
2023-02-24T18:39:00.388Z,98198.00
2023-02-24T18:41:34.354Z,98192.00
2023-02-24T18:44:01.346Z,98195.00
2023-02-24T18:46:28.351Z,98197.00
2023-02-24T18:49:03.377Z,98188.00
2023-02-24T18:51:37.351Z,98176.00
2023-02-24T18:54:11.318Z,98193.00
2023-02-24T18:56:38.307Z,98178.00
2023-02-24T18:59:05.317Z,98197.00
2023-02-24T19:01:44.439Z,98182.00
2023-02-24T19:04:11.708Z,98177.00
2023-02-24T19:06:38.758Z,98181.00
2023-02-24T19:09:17.388Z,98164.00
2023-02-24T19:11:44.458Z,98176.00
2023-02-24T19:14:18.390Z,98177.00
2023-02-24T19:16:52.369Z,98175.00
2023-02-24T19:19:19.464Z,98189.00
2023-02-24T19:21:53.307Z,98168.00
2023-02-24T19:24:20.263Z,98182.00
2023-02-24T19:26:53.349Z,98178.00
2023-02-24T19:29:20.480Z,98160.00
2023-02-24T19:31:54.617Z,98180.00
2023-02-24T19:34:28.354Z,98174.00
2023-02-24T19:36:55.323Z,98181.00
2023-02-24T19:39:29.383Z,98175.00
2023-02-24T19:41:56.517Z,98178.00
2023-02-24T19:44:30.435Z,98179.00
2023-02-24T19:46:57.405Z,98175.00
2023-02-24T19:49:24.636Z,98181.00
2023-02-24T19:52:04.326Z,98181.00
2023-02-24T19:54:38.363Z,98169.00
2023-02-24T19:57:12.462Z,98175.00
2023-02-24T19:59:39.512Z,98176.00
2023-02-24T20:02:06.928Z,98167.00
2023-02-24T20:04:40.548Z,98159.00
2023-02-24T20:07:14.418Z,98153.00
2023-02-24T20:09:48.366Z,98156.00
2023-02-24T20:12:15.403Z,98149.00
2023-02-24T20:14:49.403Z,98161.00
2023-02-24T20:17:23.380Z,98162.00
2023-02-24T20:19:50.490Z,98162.00
2023-02-24T20:22:17.654Z,98148.00
2023-02-24T20:24:51.421Z,98141.00
2023-02-24T20:27:18.486Z,98140.00
2023-02-24T20:29:45.753Z,98127.00
2023-02-24T20:32:19.527Z,98124.00
2023-02-24T20:34:46.672Z,98140.00
2023-02-24T20:37:20.460Z,98131.00
2023-02-24T20:39:54.472Z,98135.00
2023-02-24T20:42:21.628Z,98120.00
2023-02-24T20:44:48.680Z,98098.00
2023-02-24T20:47:22.548Z,98101.00
2023-02-24T20:49:49.610Z,98104.00
2023-02-24T20:52:16.620Z,98113.00
2023-02-24T20:54:50.434Z,98103.00
2023-02-24T20:57:24.388Z,98108.00
2023-02-24T21:00:02.689Z,98107.00
2023-02-24T21:02:36.404Z,98096.00
2023-02-24T21:05:03.662Z,98095.00
2023-02-24T21:07:37.462Z,98117.00
2023-02-24T21:10:12.033Z,98107.00
2023-02-24T21:12:45.382Z,98085.00
2023-02-24T21:15:19.452Z,98119.00
2023-02-24T21:17:46.440Z,98090.00
2023-02-24T21:20:20.398Z,98100.00
2023-02-24T21:22:47.431Z,98080.00
2023-02-24T21:25:21.461Z,98086.00
2023-02-24T21:27:55.460Z,98075.00
2023-02-24T21:30:22.473Z,98090.00
2023-02-24T21:32:49.506Z,98090.00
2023-02-24T21:35:23.392Z,98081.00
2023-02-24T21:37:50.388Z,98067.00
2023-02-24T21:40:24.481Z,98070.00
2023-02-24T21:42:51.595Z,98076.00
2023-02-24T21:45:25.442Z,98075.00
2023-02-24T21:47:59.404Z,98071.00
2023-02-24T21:50:33.468Z,98080.00
2023-02-24T21:53:00.525Z,98065.00
2023-02-24T21:55:34.460Z,98071.00
2023-02-24T21:58:01.459Z,98067.00
2023-02-24T22:00:35.422Z,98062.00
2023-02-24T22:03:03.030Z,98057.00
2023-02-24T22:05:36.468Z,98047.00
2023-02-24T22:08:03.619Z,98053.00
2023-02-24T22:10:37.473Z,98049.00
2023-02-24T22:13:04.553Z,98055.00
2023-02-24T22:15:38.605Z,98062.00
2023-02-24T22:18:05.728Z,98056.00
2023-02-24T22:20:32.775Z,98056.00
2023-02-24T22:23:06.494Z,98036.00
2023-02-24T22:25:35.903Z,98054.00
2023-02-24T22:28:03.013Z,98050.00
2023-02-24T22:30:36.471Z,98054.00
2023-02-24T22:33:03.553Z,98048.00
2023-02-24T22:35:34.125Z,98041.00
2023-02-24T22:38:08.491Z,98041.00
2023-02-24T22:40:35.595Z,98032.00
2023-02-24T22:43:09.467Z,98042.00
2023-02-24T22:45:36.692Z,98027.00
2023-02-24T22:48:10.554Z,98033.00
2023-02-24T22:50:37.689Z,98021.00
2023-02-24T22:53:11.456Z,98023.00
2023-02-24T22:55:45.837Z,98021.00
2023-02-24T22:58:27.051Z,98017.00
2023-02-24T23:00:54.486Z,98002.00
2023-02-24T23:03:30.537Z,98008.00
2023-02-24T23:06:05.350Z,98007.00
2023-02-24T23:08:40.460Z,98006.00
2023-02-24T23:11:14.351Z,98002.00
2023-02-24T23:13:49.485Z,98010.00
2023-02-24T23:16:19.550Z,97995.00
2023-02-24T23:18:53.550Z,97997.00
2023-02-24T23:21:37.754Z,97992.00
2023-02-24T23:24:12.492Z,97988.00
2023-02-24T23:26:45.811Z,98003.00
2023-02-24T23:29:21.408Z,97999.00
2023-02-24T23:31:48.589Z,98001.00
2023-02-24T23:34:15.706Z,98001.00
2023-02-24T23:36:51.500Z,97992.00
2023-02-24T23:39:19.730Z,97983.00
2023-02-24T23:41:55.016Z,97993.00
2023-02-24T23:44:23.783Z,97996.00
2023-02-24T23:46:50.745Z,97991.00
2023-02-24T23:49:24.455Z,97990.00
2023-02-24T23:51:58.481Z,97990.00
2023-02-24T23:54:25.388Z,97982.00
2023-02-24T23:56:52.328Z,97992.00
2023-02-24T23:59:25.450Z,97982.00
